Time;durP1;ratioP1;P1;durP2;ratioP2;P2;SDS_P1;SDS_P2;PMS_P1;PMS_P2;Temp;Humidity;BMP_temperature;BMP_pressure;BME280_temperature;BME280_humidity;BME280_pressure;Samples;Min_cycle;Max_cycle;Signal;HPM_P1;HPM_P2
2022/02/07 00:02:38;;;;;;;19.00;9.07;;;;;;;2.81;100.00;98961.88;6289644;28;20154;-70
2022/02/07 00:05:39;;;;;;;15.48;8.95;;;;;;;2.80;100.00;98961.03;6305494;28;20048;-70
2022/02/07 00:08:41;;;;;;;19.40;8.55;;;;;;;2.81;100.00;98959.28;6322030;28;20040;-73
2022/02/07 00:11:42;;;;;;;15.32;9.00;;;;;;;2.80;100.00;98955.03;6320640;28;20063;-73
2022/02/07 00:14:42;;;;;;;15.10;8.07;;;;;;;2.77;100.00;98956.00;6295732;28;20043;-73
2022/02/07 00:17:44;;;;;;;16.88;9.48;;;;;;;2.82;100.00;98940.34;6299358;28;20044;-73
2022/02/07 00:20:45;;;;;;;17.75;10.00;;;;;;;2.85;100.00;98934.22;6261695;28;20044;-70
2022/02/07 00:23:46;;;;;;;15.00;8.98;;;;;;;2.83;100.00;98927.38;6278573;28;20079;-71
2022/02/07 00:26:47;;;;;;;17.58;9.05;;;;;;;2.87;100.00;98922.09;6283157;28;20050;-70
2022/02/07 00:29:47;;;;;;;16.52;9.25;;;;;;;2.91;100.00;98913.31;6300783;28;20463;-71
2022/02/07 00:32:49;;;;;;;23.33;9.95;;;;;;;2.93;100.00;98904.59;6282864;28;20079;-71
2022/02/07 00:35:49;;;;;;;14.32;8.05;;;;;;;2.91;100.00;98901.25;6282978;28;20040;-72
2022/02/07 00:38:55;;;;;;;21.33;10.82;;;;;;;2.81;100.00;98892.31;6300542;28;20503;-72
2022/02/07 00:42:03;;;;;;;19.45;9.52;;;;;;;2.89;100.00;98869.59;6306781;28;20491;-71
2022/02/07 00:45:06;;;;;;;18.67;9.38;;;;;;;2.93;100.00;98870.28;6291900;28;20047;-72
2022/02/07 00:48:09;;;;;;;17.40;9.48;;;;;;;2.87;100.00;98863.66;6307836;28;20106;-71
2022/02/07 00:51:11;;;;;;;18.92;9.48;;;;;;;2.91;100.00;98846.31;6325305;28;20036;-75
2022/02/07 00:54:11;;;;;;;16.27;10.10;;;;;;;3.01;100.00;98837.25;6307249;28;20040;-71
2022/02/07 00:57:12;;;;;;;14.48;9.00;;;;;;;2.85;100.00;98836.31;6290528;28;20055;-71
2022/02/07 01:00:15;;;;;;;19.05;10.02;;;;;;;2.89;100.00;98830.09;6307143;28;20132;-71
2022/02/07 01:03:17;;;;;;;16.50;9.30;;;;;;;2.96;100.00;98827.13;6311365;28;20502;-71
2022/02/07 01:06:19;;;;;;;16.90;9.77;;;;;;;2.93;100.00;98819.56;6325877;28;20063;-71
2022/02/07 01:09:26;;;;;;;23.63;9.13;;;;;;;2.98;100.00;98811.59;6325700;28;20392;-71
2022/02/07 01:54:49;;;;;;;17.92;9.98;;;;;;;3.36;100.00;98693.66;6307596;28;20079;-76
2022/02/07 01:57:50;;;;;;;26.05;13.35;;;;;;;3.44;100.00;98695.81;6284653;28;20123;-72
2022/02/07 02:00:52;;;;;;;23.38;11.77;;;;;;;3.53;100.00;98697.06;6290944;28;20161;-71
2022/02/07 02:03:52;;;;;;;26.95;11.88;;;;;;;3.53;100.00;98684.19;6281419;28;20404;-72
2022/02/07 02:06:53;;;;;;;23.30;11.57;;;;;;;3.59;100.00;98681.28;6281410;28;20059;-71
2022/02/07 02:09:54;;;;;;;23.35;12.48;;;;;;;3.70;100.00;98676.34;6264931;28;20094;-71
2022/02/07 02:13:08;;;;;;;25.52;13.40;;;;;;;3.71;100.00;98688.34;6281269;28;20040;-72
2022/02/07 02:16:21;;;;;;;22.60;12.55;;;;;;;3.65;100.00;98686.09;6273838;28;20051;-71
2022/02/07 02:22:48;;;;;;;25.75;12.05;;;;;;;3.79;100.00;98686.19;6289396;28;20054;-76
2022/02/07 02:45:30;;;;;;;21.75;11.20;;;;;;;3.99;100.00;98643.75;6293926;28;20048;-71
2022/02/07 02:48:34;;;;;;;17.80;9.88;;;;;;;3.99;100.00;98646.34;6290341;28;20047;-71
2022/02/07 02:51:35;;;;;;;16.48;10.15;;;;;;;3.98;100.00;98644.69;6280576;28;20048;-71
2022/02/07 02:54:36;;;;;;;16.13;9.85;;;;;;;3.97;100.00;98629.28;6280473;28;20147;-71
2022/02/07 02:57:37;;;;;;;20.10;10.32;;;;;;;3.94;100.00;98622.56;6298098;28;20044;-71
2022/02/07 03:00:40;;;;;;;20.70;10.90;;;;;;;4.03;100.00;98619.44;6279853;28;20056;-72
2022/02/07 03:03:41;;;;;;;32.95;11.77;;;;;;;4.02;100.00;98615.22;6279884;28;20051;-76
2022/02/07 03:06:43;;;;;;;19.60;10.38;;;;;;;3.95;100.00;98605.31;6297577;28;20052;-76
2022/02/07 03:09:48;;;;;;;22.42;11.95;;;;;;;3.94;100.00;98601.09;6297706;28;20044;-76
2022/02/07 03:16:39;;;;;;;22.83;12.38;;;;;;;3.89;100.00;98597.91;6280022;28;20048;-76
2022/02/07 03:19:40;;;;;;;22.13;11.23;;;;;;;3.94;100.00;98593.34;6296462;28;20127;-76
2022/02/07 03:22:41;;;;;;;20.08;9.73;;;;;;;3.92;100.00;98588.25;6279097;28;20040;-76
2022/02/07 03:25:42;;;;;;;22.67;12.02;;;;;;;3.92;100.00;98580.53;6278918;28;20082;-76
2022/02/07 03:28:43;;;;;;;20.45;11.10;;;;;;;3.97;100.00;98575.09;6321821;28;20048;-76
2022/02/07 03:31:44;;;;;;;21.67;10.88;;;;;;;3.99;100.00;98589.56;6286837;28;20492;-76
2022/02/07 03:34:45;;;;;;;23.15;11.15;;;;;;;3.95;100.00;98574.34;6303622;28;20043;-76
2022/02/07 03:37:46;;;;;;;24.02;11.70;;;;;;;3.97;100.00;98572.50;6279023;28;20041;-76
2022/02/07 03:40:47;;;;;;;16.15;9.73;;;;;;;3.89;100.00;98562.66;6297094;28;20127;-75
2022/02/07 03:43:47;;;;;;;19.25;9.65;;;;;;;3.95;100.00;98566.59;6262958;28;20394;-72
2022/02/07 03:46:48;;;;;;;20.85;11.13;;;;;;;4.06;100.00;98576.28;6306396;28;20507;-72
2022/02/07 03:49:49;;;;;;;25.73;10.20;;;;;;;4.06;100.00;98574.56;6322245;28;20127;-71
2022/02/07 03:52:50;;;;;;;18.63;10.25;;;;;;;4.09;100.00;98569.22;6321747;28;20083;-72
2022/02/07 03:55:51;;;;;;;21.85;10.65;;;;;;;4.09;100.00;98560.66;6285712;28;20079;-72
2022/02/07 03:58:52;;;;;;;20.00;10.13;;;;;;;4.13;100.00;98562.13;6278257;28;20036;-73
2022/02/07 04:01:53;;;;;;;20.90;10.60;;;;;;;4.16;100.00;98557.63;6297039;28;20132;-72
2022/02/07 04:05:04;;;;;;;21.33;9.75;;;;;;;4.21;100.00;98554.78;6278889;28;20068;-72
2022/02/07 04:08:08;;;;;;;19.50;9.73;;;;;;;4.19;100.00;98543.69;6280741;28;20040;-72
2022/02/07 04:14:18;;;;;;;18.55;9.90;;;;;;;4.26;100.00;98551.91;6321814;28;20381;-72
2022/02/07 04:17:24;;;;;;;14.73;8.25;;;;;;;4.26;100.00;98549.31;6303455;28;20048;-76
2022/02/07 04:20:25;;;;;;;19.90;9.02;;;;;;;4.26;100.00;98564.81;6321957;28;20045;-76
2022/02/07 04:23:26;;;;;;;12.60;7.68;;;;;;;4.27;100.00;98566.50;6321730;28;20051;-76
2022/02/07 04:26:27;;;;;;;15.15;8.25;;;;;;;4.26;100.00;98562.25;6303706;28;20411;-76
2022/02/07 04:29:28;;;;;;;14.50;8.25;;;;;;;4.46;100.00;98548.97;6321578;28;20044;-71
2022/02/07 04:32:29;;;;;;;14.00;7.80;;;;;;;4.35;100.00;98552.19;6301054;28;20086;-72
2022/02/07 04:35:30;;;;;;;12.95;7.78;;;;;;;4.39;100.00;98553.69;6278711;28;20040;-71
2022/02/07 04:38:31;;;;;;;15.13;8.63;;;;;;;4.40;100.00;98554.50;6306467;28;20047;-72
2022/02/07 04:41:32;;;;;;;17.98;9.18;;;;;;;4.34;100.00;98558.28;6311463;28;20071;-76
2022/02/07 04:44:40;;;;;;;18.23;8.57;;;;;;;4.39;100.00;98556.25;6296056;28;20477;-76
2022/02/07 05:00:53;;;;;;;13.20;7.60;;;;;;;4.28;100.00;98553.47;6295695;28;20063;-76
2022/02/07 05:04:03;;;;;;;16.60;8.98;;;;;;;4.39;100.00;98545.94;6290174;28;20040;-72
2022/02/07 05:13:49;;;;;;;13.32;7.68;;;;;;;4.31;100.00;98509.41;6299707;28;20077;-72
2022/02/07 05:16:53;;;;;;;18.17;8.90;;;;;;;4.23;100.00;98511.63;6250769;28;20048;-71
2022/02/07 05:19:54;;;;;;;13.90;7.97;;;;;;;4.24;100.00;98498.63;6266321;28;20534;-72
2022/02/07 05:22:55;;;;;;;16.70;8.73;;;;;;;4.24;100.00;98495.19;6281873;28;20045;-72
2022/02/07 05:25:55;;;;;;;15.77;7.82;;;;;;;4.18;100.00;98496.41;6265110;28;20045;-72
2022/02/07 05:28:59;;;;;;;15.35;8.25;;;;;;;4.11;100.00;98496.84;6281871;28;20105;-72
2022/02/07 05:32:02;;;;;;;15.77;8.57;;;;;;;4.16;100.00;98508.56;6299391;28;20055;-72
2022/02/07 05:35:03;;;;;;;16.52;8.68;;;;;;;4.15;100.00;98516.41;6281628;28;20531;-72
2022/02/07 05:38:07;;;;;;;14.30;8.75;;;;;;;4.22;100.00;98533.19;6323067;28;20040;-72
2022/02/07 05:41:09;;;;;;;14.48;7.93;;;;;;;4.24;100.00;98508.94;6306204;28;20044;-72
2022/02/07 05:44:12;;;;;;;19.02;8.45;;;;;;;4.22;100.00;98504.78;6306437;28;20404;-72
2022/02/07 05:47:13;;;;;;;15.75;8.45;;;;;;;4.23;100.00;98486.63;6290109;28;20044;-72
2022/02/07 05:50:14;;;;;;;17.58;7.75;;;;;;;4.19;100.00;98492.06;6324189;28;20123;-71
2022/02/07 05:53:15;;;;;;;16.10;8.20;;;;;;;4.09;100.00;98496.94;6305887;28;20054;-72
2022/02/07 05:56:16;;;;;;;14.25;7.47;;;;;;;4.16;100.00;98500.84;6289252;28;20067;-71
2022/02/07 05:59:17;;;;;;;17.48;8.25;;;;;;;4.14;100.00;98499.25;6289355;28;20044;-71
2022/02/07 06:02:18;;;;;;;19.92;8.48;;;;;;;4.11;100.00;98500.25;6307325;28;20045;-71
2022/02/07 06:05:19;;;;;;;15.05;9.10;;;;;;;4.03;100.00;98505.88;6248537;28;20047;-71
2022/02/07 06:08:19;;;;;;;14.43;9.07;;;;;;;4.12;100.00;98514.00;6281336;28;20044;-71
2022/02/07 06:11:20;;;;;;;13.57;8.25;;;;;;;4.08;100.00;98515.94;6299212;28;20041;-71
2022/02/07 06:14:21;;;;;;;18.95;9.40;;;;;;;4.05;100.00;98508.38;6264170;28;20071;-71
2022/02/07 06:17:22;;;;;;;19.35;9.80;;;;;;;4.03;100.00;98517.94;6298268;28;20036;-71
2022/02/07 06:20:24;;;;;;;19.85;10.02;;;;;;;4.03;100.00;98507.63;6263956;28;20469;-71
2022/02/07 06:23:28;;;;;;;21.92;10.40;;;;;;;3.95;100.00;98508.06;6297483;28;20045;-71
2022/02/07 06:26:29;;;;;;;17.67;10.05;;;;;;;4.01;100.00;98522.38;6280928;28;20643;-70
2022/02/07 06:29:30;;;;;;;26.53;10.87;;;;;;;4.10;100.00;98519.25;6280321;28;20055;-70
2022/02/07 06:32:31;;;;;;;19.33;10.10;;;;;;;4.14;100.00;98517.31;6306794;28;20276;-70
2022/02/07 06:35:32;;;;;;;20.90;10.85;;;;;;;4.15;100.00;98513.81;6322918;28;20094;-75
2022/02/07 06:38:33;;;;;;;14.90;9.88;;;;;;;4.15;100.00;98496.56;6323361;28;20093;-70
2022/02/07 06:41:34;;;;;;;16.77;8.85;;;;;;;4.11;100.00;98489.13;6281331;28;20040;-69
2022/02/07 06:44:40;;;;;;;17.38;9.45;;;;;;;4.04;100.00;98493.81;6305750;28;20058;-74
2022/02/07 06:47:41;;;;;;;17.58;10.05;;;;;;;4.09;100.00;98484.03;6303261;28;20142;-70
2022/02/07 06:50:42;;;;;;;33.67;11.35;;;;;;;4.11;100.00;98486.53;6293440;28;20051;-74
2022/02/07 06:53:43;;;;;;;27.55;12.20;;;;;;;4.10;100.00;98471.94;6260829;28;20409;-74
2022/02/07 06:56:45;;;;;;;27.80;12.77;;;;;;;4.06;100.00;98471.31;6238522;28;20044;-70
2022/02/07 06:59:47;;;;;;;;;;;;;;;3.95;100.00;98474.50;6281168;28;20245;-75
2022/02/07 07:02:48;;;;;;;23.23;9.93;;;;;;;3.99;100.00;98478.56;6290128;28;19920;-75
2022/02/07 07:05:51;;;;;;;22.80;11.15;;;;;;;4.10;100.00;98477.97;6222018;28;20048;-75
2022/02/07 07:08:54;;;;;;;17.73;9.18;;;;;;;4.16;100.00;98469.00;6254275;28;20053;-75
2022/02/07 07:12:02;;;;;;;17.42;9.40;;;;;;;4.18;100.00;98468.00;6256565;28;20048;-74
2022/02/07 07:15:16;;;;;;;19.20;10.63;;;;;;;4.18;100.00;98470.59;6280892;28;20045;-74
2022/02/07 07:18:20;;;;;;;21.50;9.50;;;;;;;4.16;100.00;98463.84;6223035;28;20056;-74
2022/02/07 07:21:23;;;;;;;20.30;9.55;;;;;;;4.21;100.00;98465.22;6255126;28;20054;-70
2022/02/07 07:24:24;;;;;;;16.73;9.68;;;;;;;4.26;100.00;98469.28;6271987;28;20064;-75
2022/02/07 07:27:29;;;;;;;22.48;10.07;;;;;;;4.19;100.00;98469.66;6287060;28;20068;-74
2022/02/07 07:30:35;;;;;;;20.98;9.85;;;;;;;4.19;100.00;98474.00;6278063;28;20040;-70
2022/02/07 07:33:37;;;;;;;20.55;10.05;;;;;;;4.19;100.00;98474.00;6296021;28;20523;-71
2022/02/07 07:36:41;;;;;;;20.38;9.55;;;;;;;4.19;100.00;98459.31;6296301;28;20043;-71
2022/02/07 07:39:42;;;;;;;16.95;9.40;;;;;;;4.24;100.00;98454.72;6278584;28;20063;-71
2022/02/07 07:42:51;;;;;;;16.67;8.95;;;;;;;4.18;100.00;98462.00;6296097;28;20036;-74
2022/02/07 07:46:02;;;;;;;15.93;9.02;;;;;;;4.31;100.00;98459.53;6295974;28;20043;-75
2022/02/07 07:49:10;;;;;;;19.48;10.30;;;;;;;4.31;100.00;98451.78;6296338;28;20119;-75
2022/02/07 07:52:17;;;;;;;27.63;13.63;;;;;;;4.42;100.00;98446.78;6301887;28;20102;-72
2022/02/07 08:01:19;;;;;;;245.30;77.57;;;;;;;4.32;100.00;98451.66;6287289;28;20382;-75
2022/02/07 08:02:14;;;;;;;34.03;20.67;;;;;;;4.14;100.00;98456.22;6320950;28;20469;-75
2022/02/07 08:05:33;;;;;;;32.45;14.52;;;;;;;4.22;100.00;98455.72;6287152;28;20051;-73
2022/02/07 08:08:46;;;;;;;19.85;10.70;;;;;;;4.38;100.00;98451.28;6288679;28;20484;-75
2022/02/07 08:11:47;;;;;;;;;;;;;;;4.50;100.00;98449.72;6321704;28;20044;-75
2022/02/07 08:14:49;;;;;;;18.80;8.15;;;;;;;4.51;100.00;98450.53;6320799;28;20342;-75
2022/02/07 08:17:49;;;;;;;23.60;10.20;;;;;;;4.41;100.00;98451.13;6320664;28;20515;-73
2022/02/07 08:20:50;;;;;;;18.10;10.95;;;;;;;4.42;100.00;98447.59;6308494;28;20048;-73
2022/02/07 08:23:51;;;;;;;25.00;9.50;;;;;;;4.49;100.00;98449.81;6282089;28;20056;-73
2022/02/07 08:26:54;;;;;;;20.17;9.18;;;;;;;4.46;100.00;98453.41;6283694;28;20146;-73
2022/02/07 08:29:56;;;;;;;19.00;8.27;;;;;;;4.54;100.00;98448.59;6302616;28;20397;-73
2022/02/07 08:32:58;;;;;;;20.98;8.68;;;;;;;4.56;100.00;98457.09;6320780;28;20036;-73
2022/02/07 08:35:59;;;;;;;21.33;9.30;;;;;;;4.61;100.00;98457.66;6302669;28;20066;-75
2022/02/07 08:39:01;;;;;;;144.57;46.92;;;;;;;4.59;100.00;98461.22;6269393;28;20791;-75
2022/02/07 08:42:02;;;;;;;;;;;;;;;4.62;100.00;98464.47;6283819;28;20381;-75
2022/02/07 08:45:05;;;;;;;150.75;52.03;;;;;;;4.70;100.00;98464.00;6296404;28;19955;-76
2022/02/07 08:48:06;;;;;;;;;;;;;;;4.72;100.00;98462.13;6282982;28;20090;-73
2022/02/07 08:51:07;;;;;;;25.67;13.90;;;;;;;4.67;100.00;98455.59;6323936;28;20438;-73
2022/02/07 08:54:09;;;;;;;21.92;10.50;;;;;;;4.68;100.00;98458.09;6274208;28;20080;-73
2022/02/07 08:57:25;;;;;;;19.50;10.57;;;;;;;4.78;100.00;98453.19;6325107;28;20036;-73
2022/02/07 09:07:06;;;;;;;39.85;14.65;;;;;;;5.05;100.00;98445.44;6307794;28;20564;-73
2022/02/07 09:10:07;;;;;;;23.00;11.73;;;;;;;5.11;100.00;98467.50;6292121;28;20043;-72
2022/02/07 09:13:08;;;;;;;24.42;12.18;;;;;;;5.26;100.00;98453.56;6324763;28;20048;-72
2022/02/07 09:19:15;;;;;;;38.78;17.23;;;;;;;5.31;100.00;98471.34;6308409;28;20072;-73
2022/02/07 09:22:16;;;;;;;31.88;14.77;;;;;;;5.31;100.00;98481.69;6299509;28;20045;-75
2022/02/07 09:25:17;;;;;;;21.85;11.52;;;;;;;5.32;100.00;98458.34;6299490;28;20127;-72
2022/02/07 09:28:19;;;;;;;24.92;12.98;;;;;;;5.40;100.00;98465.59;6281527;28;20059;-77
2022/02/07 09:31:23;;;;;;;24.85;13.48;;;;;;;5.43;100.00;98473.16;6301382;28;20501;-75
2022/02/07 09:34:24;;;;;;;33.58;14.88;;;;;;;5.46;100.00;98467.78;6308336;28;20413;-72
2022/02/07 09:37:25;;;;;;;18.65;11.88;;;;;;;5.52;100.00;98461.38;6298917;28;20047;-72
2022/02/07 09:40:26;;;;;;;26.30;12.50;;;;;;;5.48;100.00;98467.66;6302806;28;20036;-72
2022/02/07 09:43:32;;;;;;;27.38;13.40;;;;;;;5.45;100.00;98469.53;6273649;28;20352;-75
2022/02/07 09:46:45;;;;;;;32.63;15.98;;;;;;;5.57;100.00;98470.50;6322554;28;20052;-72
2022/02/07 09:49:47;;;;;;;30.48;14.23;;;;;;;5.61;100.00;98477.13;6305802;28;20480;-72
2022/02/07 09:52:48;;;;;;;28.13;13.43;;;;;;;5.54;100.00;98468.13;6323606;28;20052;-75
2022/02/07 09:55:49;;;;;;;30.30;14.38;;;;;;;5.74;100.00;98460.78;6323390;28;20036;-75
2022/02/07 09:58:52;;;;;;;35.95;15.85;;;;;;;5.77;100.00;98470.94;6288043;28;20859;-75
2022/02/07 10:01:56;;;;;;;21.95;11.68;;;;;;;5.88;100.00;98481.41;6323754;28;20043;-72
2022/02/07 10:05:02;;;;;;;20.63;12.27;;;;;;;6.05;100.00;98494.09;6323582;28;20036;-75
2022/02/07 10:08:13;;;;;;;23.17;12.30;;;;;;;5.91;100.00;98488.13;6323502;28;20044;-71
2022/02/07 10:14:33;;;;;;;26.08;12.52;;;;;;;6.05;100.00;98493.25;6305301;28;20067;-71
2022/02/07 10:17:55;;;;;;;22.75;12.73;;;;;;;6.07;100.00;98490.56;6305054;28;20048;-72
2022/02/07 10:34:38;;;;;;;29.38;15.75;;;;;;;6.18;100.00;98514.00;6323298;28;20040;-71
2022/02/07 10:38:06;;;;;;;22.48;12.25;;;;;;;6.07;100.00;98519.03;6292010;28;20075;-75
2022/02/07 10:41:22;;;;;;;19.38;10.00;;;;;;;6.09;100.00;98532.72;6322484;28;20142;-75
2022/02/07 10:44:34;;;;;;;20.70;9.88;;;;;;;6.23;100.00;98532.63;6306848;28;20488;-75
2022/02/07 10:47:46;;;;;;;15.93;8.93;;;;;;;6.29;100.00;98531.38;6322399;28;20053;-71
2022/02/07 10:51:07;;;;;;;12.88;8.18;;;;;;;6.08;100.00;98539.66;6322444;28;20472;-71
2022/02/07 10:54:11;;;;;;;15.02;8.18;;;;;;;6.25;100.00;98554.91;6322204;28;20056;-75
2022/02/07 10:57:12;;;;;;;16.95;8.60;;;;;;;6.24;100.00;98566.19;6322078;28;20384;-75
2022/02/07 11:00:21;;;;;;;11.68;6.88;;;;;;;6.40;100.00;98570.34;6322100;28;20503;-75
2022/02/07 11:03:27;;;;;;;12.73;7.63;;;;;;;6.35;100.00;98570.66;6322065;28;20119;-71
2022/02/07 11:06:36;;;;;;;15.35;7.45;;;;;;;6.38;100.00;98579.97;6287683;28;20553;-72
2022/02/07 11:20:00;;;;;;;11.75;7.28;;;;;;;6.51;100.00;98608.50;6306688;28;20047;-75
2022/02/07 11:23:16;;;;;;;16.95;9.23;;;;;;;6.50;100.00;98610.25;6289989;28;20043;-71
2022/02/07 11:26:32;;;;;;;29.05;13.70;;;;;;;6.49;100.00;98610.38;6321555;28;20061;-75
2022/02/07 11:29:48;;;;;;;17.77;9.63;;;;;;;6.48;100.00;98621.66;6321524;28;20473;-75
2022/02/07 11:32:54;;;;;;;16.33;7.60;;;;;;;6.28;100.00;98625.56;6321412;28;20480;-71
2022/02/07 11:35:55;;;;;;;12.52;6.53;;;;;;;6.23;100.00;98637.06;6304106;28;20040;-71
2022/02/07 11:38:58;;;;;;;14.40;6.75;;;;;;;6.53;100.00;98650.69;6321173;28;20449;-72
2022/02/07 11:41:59;;;;;;;12.18;7.03;;;;;;;6.39;100.00;98649.00;6321260;28;20309;-74
2022/02/07 11:44:59;;;;;;;12.50;6.60;;;;;;;6.43;100.00;98646.09;6303318;28;20540;-71
2022/02/07 11:48:09;;;;;;;13.05;6.28;;;;;;;6.17;100.00;98653.00;6321366;28;20528;-72
2022/02/07 11:51:14;;;;;;;14.02;8.15;;;;;;;6.07;100.00;98680.41;6303165;28;20495;-73
2022/02/07 11:54:24;;;;;;;7.07;3.35;;;;;;;5.28;100.00;98668.13;6302950;28;20052;-73
2022/02/07 11:57:37;;;;;;;2.97;2.17;;;;;;;5.12;100.00;98676.78;6321098;28;20472;-76
2022/02/07 12:00:49;;;;;;;7.30;3.75;;;;;;;5.08;100.00;98667.56;6286976;28;20063;-72
2022/02/07 12:03:54;;;;;;;4.45;3.10;;;;;;;5.21;100.00;98668.50;6321096;28;20078;-73
2022/02/07 12:07:08;;;;;;;8.38;4.43;;;;;;;5.18;100.00;98696.28;6303047;28;20404;-73
2022/02/07 12:10:28;;;;;;;5.20;2.85;;;;;;;5.18;100.00;98704.88;6320680;28;20484;-76
2022/02/07 12:13:32;;;;;;;5.60;2.92;;;;;;;5.16;100.00;98705.91;6320842;28;20040;-75
2022/02/07 12:16:44;;;;;;;3.28;2.10;;;;;;;4.91;100.00;98684.09;6320652;28;20039;-72
2022/02/07 12:19:47;;;;;;;4.88;2.63;;;;;;;4.98;100.00;98685.41;6303379;28;20123;-75
2022/02/07 12:23:09;;;;;;;4.28;2.40;;;;;;;5.02;100.00;98707.56;6307821;28;20040;-76
2022/02/07 12:26:16;;;;;;;2.42;1.58;;;;;;;5.13;100.00;98747.47;6307870;28;20051;-75
2022/02/07 12:29:48;;;;;;;2.13;1.30;;;;;;;4.91;100.00;98766.81;6325750;28;20047;-73
2022/02/07 12:32:47;;;;;;;2.72;1.08;;;;;;;4.95;100.00;98788.16;6325656;28;20480;-72
2022/02/07 12:35:48;;;;;;;2.00;0.98;;;;;;;4.90;100.00;98801.34;6307601;28;20081;-71
2022/02/07 12:38:50;;;;;;;3.30;1.30;;;;;;;4.57;100.00;98820.44;6325618;28;20036;-72
2022/02/07 12:41:51;;;;;;;4.53;1.70;;;;;;;4.67;100.00;98828.47;6325463;28;20040;-75
2022/02/07 12:44:57;;;;;;;3.08;1.60;;;;;;;4.56;100.00;98844.59;6307553;28;20040;-75
2022/02/07 12:48:05;;;;;;;4.10;1.52;;;;;;;4.44;100.00;98861.59;6325343;28;20048;-71
2022/02/07 12:51:06;;;;;;;2.17;1.23;;;;;;;4.13;100.00;98867.56;6307251;28;20036;-76
2022/02/07 12:54:08;;;;;;;1.75;1.10;;;;;;;4.15;100.00;98888.16;6325080;28;20048;-76
2022/02/07 12:57:09;;;;;;;1.60;1.00;;;;;;;3.97;100.00;98879.63;6290664;28;20442;-73
2022/02/07 13:00:13;;;;;;;1.20;0.85;;;;;;;3.90;100.00;98863.66;6306976;28;20090;-72
2022/02/07 13:03:14;;;;;;;2.08;1.15;;;;;;;4.05;100.00;98869.75;6307147;28;20043;-72
2022/02/07 13:06:15;;;;;;;9.75;4.57;;;;;;;4.04;100.00;98892.16;6306897;28;20074;-76
2022/02/07 13:09:30;;;;;;;4.60;2.38;;;;;;;3.90;100.00;98904.09;6324799;28;20043;-76
2022/02/07 13:15:35;;;;;;;2.33;1.42;;;;;;;4.00;100.00;98889.81;6324681;28;20044;-75
2022/02/07 13:18:40;;;;;;;2.95;1.40;;;;;;;3.91;100.00;98895.44;6273857;28;20087;-75
2022/02/07 13:21:43;;;;;;;4.85;1.33;;;;;;;3.88;100.00;98911.09;6324437;28;20478;-76
2022/02/07 13:24:46;;;;;;;2.20;1.50;;;;;;;3.93;100.00;98920.28;6324542;28;20044;-76
2022/02/07 13:27:47;;;;;;;2.20;1.60;;;;;;;3.91;100.00;98916.09;6324479;28;20044;-72
2022/02/07 13:30:54;;;;;;;4.20;1.80;;;;;;;4.00;100.00;98937.09;6306088;28;20485;-76
2022/02/07 13:33:54;;;;;;;2.50;1.65;;;;;;;4.02;97.71;98935.28;6306132;28;20471;-77
2022/02/07 13:37:15;;;;;;;6.38;2.17;;;;;;;4.19;93.30;98944.72;6306178;28;20063;-76
2022/02/07 13:40:18;;;;;;;14.85;5.22;;;;;;;4.27;92.80;98952.06;6324096;28;20047;-72
2022/02/07 13:43:27;;;;;;;13.25;5.70;;;;;;;4.10;95.15;98968.44;6306095;28;20454;-73
2022/02/07 13:46:30;;;;;;;13.25;5.40;;;;;;;4.27;95.11;98969.31;6305941;28;20036;-72
2022/02/07 13:49:31;;;;;;;11.27;4.93;;;;;;;4.37;96.89;98973.09;6306055;28;20072;-73
2022/02/07 13:52:36;;;;;;;7.93;3.17;;;;;;;4.33;95.11;98971.56;6323437;28;20063;-73
2022/02/07 13:55:43;;;;;;;5.60;2.10;;;;;;;4.14;92.48;98972.53;6324124;28;20043;-76
2022/02/07 13:58:45;;;;;;;4.68;2.17;;;;;;;4.39;97.04;98981.59;6305780;28;20504;-76
2022/02/07 14:01:48;;;;;;;3.35;2.15;;;;;;;4.46;93.10;98985.50;6305810;28;20040;-76
2022/02/07 14:04:53;;;;;;;5.82;3.05;;;;;;;4.51;91.83;98996.44;6323546;28;20128;-76
2022/02/07 14:08:01;;;;;;;6.90;3.35;;;;;;;4.61;91.83;98996.75;6305734;28;20044;-76
2022/02/07 14:11:06;;;;;;;6.20;3.38;;;;;;;4.50;92.83;98999.91;6323317;28;20051;-73
2022/02/07 14:14:07;;;;;;;5.65;3.70;;;;;;;4.46;94.56;99013.91;6305568;28;20036;-72
2022/02/07 14:17:08;;;;;;;6.07;3.92;;;;;;;4.35;95.04;99019.66;6305289;28;20618;-76
2022/02/07 14:20:12;;;;;;;7.72;3.63;;;;;;;4.43;93.76;99016.66;6305185;28;20036;-72
2022/02/07 14:23:15;;;;;;;7.85;3.92;;;;;;;4.33;92.83;99024.06;6322983;28;20040;-72
2022/02/07 14:26:19;;;;;;;8.38;4.43;;;;;;;4.43;91.15;99032.16;6304869;28;20480;-72
2022/02/07 14:29:20;;;;;;;12.13;5.18;;;;;;;4.42;92.01;99033.88;6305312;28;20055;-72
2022/02/07 14:32:21;;;;;;;10.07;6.50;;;;;;;4.61;91.91;99040.69;6322702;28;20043;-72
2022/02/07 14:35:22;;;;;;;23.70;8.27;;;;;;;4.67;91.26;99053.28;6322741;28;20071;-73
2022/02/07 14:38:23;;;;;;;15.50;6.95;;;;;;;4.60;91.84;99057.13;6322523;28;20040;-72
2022/02/07 14:41:24;;;;;;;11.57;5.43;;;;;;;4.65;91.26;99065.44;6288165;28;20047;-72
2022/02/07 14:44:31;;;;;;;9.70;5.38;;;;;;;4.63;90.60;99075.03;6303631;28;20040;-72
2022/02/07 14:50:52;;;;;;;3.63;2.47;;;;;;;4.59;92.40;99074.38;6307026;28;20059;-73
2022/02/07 14:53:52;;;;;;;5.60;2.57;;;;;;;4.60;92.70;99085.53;6284505;28;20497;-72
2022/02/07 14:56:53;;;;;;;7.82;4.35;;;;;;;4.43;94.34;99096.75;6297077;28;20051;-73
2022/02/07 14:59:54;;;;;;;13.18;5.82;;;;;;;4.40;95.29;99102.88;6279200;28;20404;-72
2022/02/07 15:02:58;;;;;;;20.95;7.47;;;;;;;4.39;94.57;99103.81;6262729;28;20131;-72
2022/02/07 15:05:59;;;;;;;22.35;7.95;;;;;;;4.37;95.53;99120.31;6296935;28;20086;-76
2022/02/07 15:09:00;;;;;;;11.77;4.73;;;;;;;4.29;95.91;99128.41;6262851;28;20123;-72
2022/02/07 15:12:01;;;;;;;9.63;4.88;;;;;;;4.38;95.99;99130.53;6262489;28;20081;-76
2022/02/07 15:15:03;;;;;;;15.98;6.82;;;;;;;4.31;97.96;99136.09;6278988;28;20063;-72
2022/02/07 15:18:07;;;;;;;28.80;8.38;;;;;;;4.32;98.17;99145.50;6278817;28;20044;-76
2022/02/07 15:21:08;;;;;;;16.02;8.20;;;;;;;4.32;96.99;99154.06;6279036;28;20052;-76
2022/02/07 15:24:09;;;;;;;15.48;8.20;;;;;;;4.29;96.86;99162.00;6296337;28;20147;-76
2022/02/07 15:27:10;;;;;;;16.00;8.98;;;;;;;4.16;96.95;99166.06;6278821;28;20052;-76
2022/02/07 15:30:12;;;;;;;17.55;8.88;;;;;;;4.20;97.89;99176.19;6278640;28;20059;-76
2022/02/07 15:33:18;;;;;;;17.80;8.30;;;;;;;4.16;97.26;99176.41;6296322;28;20052;-76
2022/02/07 15:36:20;;;;;;;19.67;9.15;;;;;;;4.16;97.07;99187.59;6296588;28;20047;-76
2022/02/07 15:39:21;;;;;;;21.52;9.95;;;;;;;4.13;97.71;99197.22;6296067;28;20040;-72
2022/02/07 15:42:23;;;;;;;19.65;10.35;;;;;;;4.06;98.48;99214.75;6278319;28;20101;-76
2022/02/07 15:45:26;;;;;;;48.65;20.67;;;;;;;4.02;98.53;99218.38;6278251;28;20061;-76
2022/02/07 15:48:29;;;;;;;48.75;20.05;;;;;;;4.02;98.56;99226.97;6278631;28;20051;-76
2022/02/07 15:51:30;;;;;;;41.78;18.40;;;;;;;3.96;99.98;99236.75;6296290;28;20055;-76
2022/02/07 15:54:36;;;;;;;32.35;15.73;;;;;;;3.96;100.00;99253.06;6303274;28;20032;-72
2022/02/07 15:57:38;;;;;;;37.38;16.38;;;;;;;3.99;100.00;99255.50;6303683;28;20040;-76
2022/02/07 16:00:40;;;;;;;;;;;;;;;3.97;100.00;99270.22;6303631;28;20037;-76
2022/02/07 16:03:40;;;;;;;31.80;15.25;;;;;;;3.86;100.00;99277.63;6320833;28;20441;-76
2022/02/07 16:06:42;;;;;;;36.13;17.15;;;;;;;3.83;100.00;99285.53;6311958;28;20054;-72
2022/02/07 16:09:43;;;;;;;39.63;18.58;;;;;;;3.78;100.00;99296.03;6288507;28;20036;-72
2022/02/07 16:12:45;;;;;;;55.80;20.38;;;;;;;3.73;100.00;99310.06;6289314;28;20101;-72
2022/02/07 16:15:48;;;;;;;41.85;20.77;;;;;;;3.51;100.00;99311.00;6245403;28;20067;-72
2022/02/07 16:18:50;;;;;;;7.90;3.83;;;;;;;3.54;92.96;99310.03;6261765;28;20120;-72
2022/02/07 16:21:51;;;;;;;6.07;3.15;;;;;;;3.71;88.79;99311.88;6261554;28;20040;-76
2022/02/07 16:24:52;;;;;;;7.05;3.60;;;;;;;3.73;87.92;99320.38;6277882;28;20036;-76
2022/02/07 16:27:53;;;;;;;10.52;5.15;;;;;;;3.76;87.60;99335.72;6295928;28;20048;-76
2022/02/07 16:30:54;;;;;;;6.85;4.10;;;;;;;3.65;90.41;99333.63;6261188;28;20052;-76
2022/02/07 16:33:55;;;;;;;7.03;4.45;;;;;;;3.60;91.14;99349.31;6295773;28;20094;-76
2022/02/07 16:36:56;;;;;;;7.78;4.93;;;;;;;3.60;92.80;99354.47;6277849;28;20469;-76